createdAt,value
2019-05-13T00:02:14.211Z,6.20
2019-05-13T00:04:44.207Z,6.08
2019-05-13T00:07:13.628Z,6.50
2019-05-13T00:09:44.268Z,7.78
2019-05-13T00:12:13.923Z,5.20
2019-05-13T00:14:43.608Z,8.65
2019-05-13T00:17:14.591Z,9.15
2019-05-13T00:19:44.340Z,8.18
2019-05-13T00:22:14.132Z,7.28
2019-05-13T00:24:44.310Z,7.70
2019-05-13T00:27:14.623Z,8.78
2019-05-13T00:29:44.536Z,12.15
2019-05-13T00:32:13.788Z,10.03
2019-05-13T00:34:44.500Z,7.92
2019-05-13T00:37:14.808Z,6.42
2019-05-13T00:39:45.529Z,6.30
2019-05-13T00:42:15.846Z,5.55
2019-05-13T00:44:45.171Z,11.53
2019-05-13T00:47:14.500Z,13.05
2019-05-13T00:49:43.860Z,6.28
2019-05-13T00:52:14.338Z,11.35
2019-05-13T00:54:44.312Z,10.85
2019-05-13T00:57:13.604Z,6.90
2019-05-13T00:59:44.318Z,12.53
2019-05-13T01:02:14.164Z,10.03
2019-05-13T01:04:44.162Z,6.08
2019-05-13T01:07:25.329Z,8.33
2019-05-13T01:09:44.612Z,6.87
2019-05-13T01:12:14.236Z,11.65
2019-05-13T01:14:43.645Z,10.13
2019-05-13T01:17:14.212Z,7.97
2019-05-13T01:19:43.639Z,9.35
2019-05-13T01:22:13.491Z,5.95
2019-05-13T01:24:44.137Z,7.53
2019-05-13T01:27:14.116Z,11.50
2019-05-13T01:29:43.725Z,9.75
2019-05-13T01:32:14.463Z,12.40
2019-05-13T01:34:44.389Z,8.05
2019-05-13T01:37:13.782Z,6.15
2019-05-13T01:39:43.749Z,5.80
2019-05-13T01:42:13.746Z,9.08
2019-05-13T01:44:43.837Z,11.22
2019-05-13T01:47:13.489Z,8.05
2019-05-13T01:49:44.013Z,6.53
2019-05-13T01:52:13.708Z,7.37
2019-05-13T01:54:44.196Z,7.35
2019-05-13T01:57:14.308Z,6.83
2019-05-13T01:59:43.844Z,11.63
2019-05-13T02:02:13.737Z,9.85
2019-05-13T02:04:43.895Z,11.53
2019-05-13T02:07:14.370Z,9.68
2019-05-13T02:09:44.376Z,6.28
2019-05-13T02:12:14.059Z,8.28
2019-05-13T02:14:44.382Z,8.45
2019-05-13T02:17:14.595Z,9.05
2019-05-13T02:19:44.353Z,10.78
2019-05-13T02:22:14.837Z,8.95
2019-05-13T02:24:44.763Z,5.12
2019-05-13T02:27:14.350Z,5.17
2019-05-13T02:29:44.821Z,7.05
2019-05-13T02:32:14.185Z,7.62
2019-05-13T02:34:44.050Z,8.43
2019-05-13T02:37:14.649Z,6.97
2019-05-13T02:39:43.978Z,9.88
2019-05-13T02:42:13.562Z,7.75
2019-05-13T02:44:43.761Z,14.68
2019-05-13T02:47:13.214Z,9.10
2019-05-13T02:49:43.284Z,7.85
2019-05-13T02:52:14.019Z,13.55
2019-05-13T02:54:43.649Z,13.50
2019-05-13T02:57:12.985Z,6.97
2019-05-13T02:59:42.552Z,8.85
2019-05-13T03:02:12.499Z,8.33
2019-05-13T03:04:43.431Z,7.67
2019-05-13T03:07:12.988Z,8.90
2019-05-13T03:09:42.423Z,13.72
2019-05-13T03:12:13.026Z,6.15
2019-05-13T03:14:48.077Z,8.43
2019-05-13T03:17:15.369Z,9.88
2019-05-13T03:19:44.696Z,11.83
2019-05-13T03:22:14.044Z,14.05
2019-05-13T03:24:43.368Z,10.58
2019-05-13T03:27:13.121Z,13.05
2019-05-13T03:29:43.240Z,11.03
2019-05-13T03:32:16.001Z,10.85
2019-05-13T03:34:45.791Z,10.95
2019-05-13T03:37:16.264Z,8.90
2019-05-13T03:39:47.505Z,7.95
2019-05-13T03:42:16.823Z,6.92
2019-05-13T03:44:52.319Z,7.85
2019-05-13T03:47:23.237Z,10.75
2019-05-13T03:49:55.623Z,9.98
2019-05-13T03:52:25.224Z,9.88
2019-05-13T03:54:54.993Z,10.55
2019-05-13T03:57:24.755Z,13.45
2019-05-13T03:59:54.233Z,12.50
2019-05-13T04:02:24.021Z,11.43
2019-05-13T04:04:53.440Z,11.28
2019-05-13T04:07:23.991Z,11.75
2019-05-13T04:09:53.722Z,10.68
2019-05-13T04:12:28.360Z,8.88
2019-05-13T04:14:56.711Z,10.08
2019-05-13T04:17:26.305Z,16.02
2019-05-13T04:19:56.001Z,12.35
2019-05-13T04:22:25.595Z,21.45
2019-05-13T04:24:55.001Z,11.20
2019-05-13T04:27:24.496Z,11.33
2019-05-13T04:29:54.003Z,13.88
2019-05-13T04:32:28.260Z,9.13
2019-05-13T04:34:54.526Z,10.90
2019-05-13T04:37:23.849Z,11.18
2019-05-13T04:39:56.275Z,8.63
2019-05-13T04:42:24.205Z,11.88
2019-05-13T04:44:53.609Z,14.20
2019-05-13T04:47:23.164Z,12.30
2019-05-13T04:49:53.737Z,13.90
2019-05-13T04:52:23.168Z,9.65
2019-05-13T04:54:52.946Z,11.03
2019-05-13T04:57:22.869Z,14.00
2019-05-13T04:59:55.014Z,9.38
2019-05-13T05:02:40.062Z,13.13
2019-05-13T05:05:22.528Z,18.00
2019-05-13T05:08:07.302Z,10.15
2019-05-13T05:10:51.163Z,11.80
2019-05-13T05:13:53.104Z,10.32
2019-05-13T05:16:33.814Z,12.90
2019-05-13T05:19:33.948Z,11.53
2019-05-13T05:22:13.147Z,18.37
2019-05-13T05:24:46.249Z,10.18
2019-05-13T05:27:51.443Z,13.70
2019-05-13T05:30:41.237Z,16.62
2019-05-13T05:33:35.734Z,10.82
2019-05-13T05:38:38.093Z,10.23
2019-05-13T05:41:12.099Z,17.37
2019-05-13T05:43:45.200Z,16.70
2019-05-13T05:46:14.160Z,15.35
2019-05-13T05:48:44.122Z,16.02
2019-05-13T05:51:14.503Z,12.03
2019-05-13T05:53:46.671Z,15.38
2019-05-13T05:56:17.678Z,15.32
2019-05-13T05:58:47.750Z,10.40
2019-05-13T06:01:18.539Z,11.38
2019-05-13T06:03:48.138Z,12.78
2019-05-13T06:06:22.751Z,13.83
2019-05-13T06:08:51.777Z,15.08
2019-05-13T06:11:22.280Z,13.88
2019-05-13T06:13:54.463Z,16.00
2019-05-13T06:16:23.199Z,10.63
2019-05-13T06:18:52.825Z,15.15
2019-05-13T06:21:22.164Z,13.43
2019-05-13T06:23:52.726Z,18.20
2019-05-13T06:26:23.651Z,15.88
2019-05-13T06:28:53.337Z,19.92
2019-05-13T06:31:22.730Z,17.12
2019-05-13T06:33:52.126Z,16.00
2019-05-13T06:36:22.123Z,17.17
2019-05-13T06:38:51.562Z,12.28
2019-05-13T06:41:21.937Z,15.23
2019-05-13T06:43:52.561Z,17.85
2019-05-13T06:46:22.010Z,16.30
2019-05-13T06:48:52.177Z,18.32
2019-05-13T06:51:22.186Z,15.15
2019-05-13T06:53:51.910Z,14.58
2019-05-13T06:56:21.926Z,12.63
2019-05-13T06:58:52.406Z,20.30
2019-05-13T07:01:22.006Z,8.30
2019-05-13T07:03:51.871Z,12.50
2019-05-13T07:06:21.792Z,13.32
2019-05-13T07:08:52.135Z,8.48
2019-05-13T07:11:24.949Z,16.42
2019-05-13T07:13:53.674Z,21.70
2019-05-13T07:16:23.001Z,10.75
2019-05-13T07:18:52.543Z,16.62
2019-05-13T07:21:21.950Z,9.90
2019-05-13T07:23:54.766Z,11.95
2019-05-13T07:26:22.306Z,11.65
2019-05-13T07:28:52.899Z,11.35
2019-05-13T07:31:22.369Z,17.87
2019-05-13T07:33:52.227Z,12.05
2019-05-13T07:36:22.605Z,9.43
2019-05-13T07:38:52.240Z,8.83
2019-05-13T07:41:35.633Z,8.45
2019-05-13T07:43:52.945Z,15.32
2019-05-13T07:46:22.339Z,13.05
2019-05-13T07:48:52.275Z,7.50
2019-05-13T07:51:22.282Z,14.07
2019-05-13T07:53:51.974Z,7.78
2019-05-13T07:56:22.016Z,11.85
2019-05-13T07:58:52.358Z,12.95
2019-05-13T08:01:22.133Z,11.93
2019-05-13T08:03:51.814Z,13.13
2019-05-13T08:06:21.961Z,12.37
2019-05-13T08:08:52.712Z,14.60
2019-05-13T08:11:22.477Z,15.60
2019-05-13T08:13:52.850Z,12.75
2019-05-13T08:16:22.488Z,11.10
2019-05-13T08:18:52.444Z,6.97
2019-05-13T08:21:21.894Z,11.28
2019-05-13T08:23:52.432Z,11.08
2019-05-13T08:26:23.060Z,14.03
2019-05-13T08:29:01.305Z,11.97
2019-05-13T08:31:23.666Z,11.70
2019-05-13T08:33:53.029Z,11.38
2019-05-13T08:36:23.473Z,10.08
2019-05-13T08:38:52.936Z,10.43
2019-05-13T08:41:23.544Z,10.05
2019-05-13T08:43:53.241Z,6.80
2019-05-13T08:46:22.589Z,9.38
2019-05-13T08:48:52.006Z,10.25
2019-05-13T08:51:22.118Z,16.45
2019-05-13T08:53:51.862Z,11.60
2019-05-13T08:56:22.265Z,9.25
2019-05-13T08:58:52.252Z,11.55
2019-05-13T09:01:22.668Z,11.93
2019-05-13T09:03:52.274Z,12.47
2019-05-13T09:06:22.186Z,13.40
2019-05-13T09:08:53.794Z,10.28
2019-05-13T09:11:22.969Z,10.32
2019-05-13T09:13:52.310Z,12.10
2019-05-13T09:16:21.716Z,10.55
2019-05-13T09:18:52.185Z,7.80
2019-05-13T09:21:22.477Z,10.65
2019-05-13T09:23:51.937Z,7.78
2019-05-13T09:26:22.592Z,10.03
2019-05-13T09:28:52.293Z,10.30
2019-05-13T09:31:22.209Z,10.30
2019-05-13T09:33:52.192Z,11.43
2019-05-13T09:36:22.691Z,6.83
2019-05-13T09:38:52.492Z,5.20
2019-05-13T09:41:22.140Z,10.03
2019-05-13T09:43:51.574Z,10.38
2019-05-13T09:46:22.621Z,11.68
2019-05-13T09:48:51.911Z,10.23
2019-05-13T09:51:21.719Z,11.28
2019-05-13T09:53:52.223Z,4.75
2019-05-13T09:56:22.407Z,9.23
2019-05-13T09:58:51.863Z,6.15
2019-05-13T10:01:22.570Z,5.30
2019-05-13T10:06:23.147Z,10.35
2019-05-13T10:08:52.931Z,4.75
2019-05-13T10:11:22.267Z,8.30
2019-05-13T10:13:51.658Z,6.03
2019-05-13T10:16:22.035Z,6.65
2019-05-13T10:18:52.474Z,5.72
2019-05-13T10:21:22.220Z,3.62
2019-05-13T10:23:52.138Z,7.85
2019-05-13T10:26:22.555Z,4.12
2019-05-13T10:28:52.681Z,6.12
2019-05-13T10:31:22.316Z,5.80
2019-05-13T10:33:52.113Z,4.12
2019-05-13T10:36:22.225Z,4.60
2019-05-13T10:38:52.567Z,7.50
2019-05-13T10:41:22.341Z,3.83
2019-05-13T10:43:52.316Z,5.87
2019-05-13T10:46:22.297Z,7.37
2019-05-13T10:48:52.818Z,5.97
2019-05-13T10:51:23.391Z,6.10
2019-05-13T10:53:56.374Z,5.00
2019-05-13T10:56:23.909Z,5.45
2019-05-13T10:58:53.631Z,6.65
2019-05-13T11:01:23.063Z,3.62
2019-05-13T11:03:52.658Z,3.92
2019-05-13T11:06:22.162Z,9.75
2019-05-13T11:08:53.058Z,6.05
2019-05-13T11:11:22.551Z,5.37
2019-05-13T11:16:23.757Z,5.78
2019-05-13T11:18:53.102Z,8.13
2019-05-13T11:21:22.759Z,6.72
2019-05-13T11:23:52.340Z,10.72
2019-05-13T11:26:22.332Z,5.72
2019-05-13T11:28:52.312Z,2.75
2019-05-13T11:31:22.458Z,4.83
2019-05-13T11:33:52.360Z,5.08
2019-05-13T11:36:23.458Z,1.70
2019-05-13T11:38:53.386Z,4.30
2019-05-13T11:41:23.138Z,3.08
2019-05-13T11:44:11.028Z,3.37
2019-05-13T11:46:23.615Z,4.25
2019-05-13T11:48:52.949Z,2.47
2019-05-13T11:51:24.195Z,6.17
2019-05-13T11:53:53.716Z,4.53
2019-05-13T11:56:23.349Z,2.87
2019-05-13T11:58:53.591Z,5.75
2019-05-13T12:01:23.180Z,3.67
2019-05-13T12:03:53.364Z,3.37
2019-05-13T12:06:23.474Z,4.42
2019-05-13T12:08:55.307Z,5.97
2019-05-13T12:11:24.031Z,2.62
2019-05-13T12:13:53.361Z,3.05
2019-05-13T12:16:23.669Z,6.15
2019-05-13T12:18:53.142Z,4.37
2019-05-13T12:21:22.495Z,3.22
2019-05-13T12:26:23.947Z,3.55
2019-05-13T12:31:24.596Z,3.02
2019-05-13T12:33:53.926Z,3.65
2019-05-13T12:36:24.411Z,2.40
2019-05-13T12:38:54.581Z,5.53
2019-05-13T12:41:23.895Z,2.37
2019-05-13T12:43:54.061Z,2.90
2019-05-13T12:46:24.703Z,4.10
2019-05-13T12:48:54.460Z,3.60
2019-05-13T12:51:23.794Z,6.75
2019-05-13T12:53:53.141Z,2.67
2019-05-13T12:56:23.613Z,2.77
2019-05-13T12:58:53.071Z,2.45
2019-05-13T13:01:23.799Z,2.77
2019-05-13T13:03:53.406Z,1.92
2019-05-13T13:06:32.311Z,3.08
2019-05-13T13:08:53.767Z,3.08
2019-05-13T13:11:23.215Z,4.00
2019-05-13T13:13:58.756Z,3.77
2019-05-13T13:16:23.945Z,2.95
2019-05-13T13:18:53.276Z,3.22
2019-05-13T13:21:24.286Z,4.37
2019-05-13T13:23:53.705Z,2.50
2019-05-13T13:26:23.062Z,2.92
2019-05-13T13:28:55.777Z,3.12
2019-05-13T13:31:25.118Z,3.90
2019-05-13T13:33:55.608Z,2.35
2019-05-13T13:36:25.237Z,3.77
2019-05-13T13:38:56.367Z,3.00
2019-05-13T13:41:25.851Z,3.05
2019-05-13T13:43:55.422Z,5.78
2019-05-13T13:46:37.130Z,2.60
2019-05-13T13:48:55.967Z,2.83
2019-05-13T13:51:26.878Z,4.28
2019-05-13T13:53:56.904Z,2.12
2019-05-13T13:56:26.237Z,1.62
2019-05-13T13:58:55.864Z,3.83
2019-05-13T14:01:27.451Z,3.85
2019-05-13T14:03:56.166Z,2.90
2019-05-13T14:06:32.107Z,4.72
2019-05-13T14:06:33.061Z,5.03
2019-05-13T14:07:03.896Z,7.85
2019-05-13T14:07:06.049Z,5.60
2019-05-13T14:07:22.939Z,2.55
2019-05-13T14:08:56.538Z,3.25
2019-05-13T14:11:25.873Z,1.87
2019-05-13T14:13:55.198Z,2.25
2019-05-13T14:16:31.245Z,1.87
2019-05-13T14:18:55.577Z,2.90
2019-05-13T14:21:25.023Z,2.75
2019-05-13T14:23:54.348Z,3.80
2019-05-13T14:26:23.685Z,3.58
2019-05-13T14:28:53.814Z,2.42
2019-05-13T14:31:23.425Z,7.47
2019-05-13T14:33:52.755Z,4.22
2019-05-13T14:36:23.246Z,3.15
2019-05-13T14:38:53.081Z,2.65
2019-05-13T14:41:22.447Z,3.42
2019-05-13T14:43:51.939Z,3.05
2019-05-13T14:46:25.341Z,1.50
2019-05-13T14:48:52.328Z,2.98
2019-05-13T14:51:21.965Z,3.10
2019-05-13T14:53:52.325Z,5.92
2019-05-13T14:56:22.142Z,7.12
2019-05-13T14:58:52.214Z,4.53
2019-05-13T15:01:22.969Z,4.25
2019-05-13T15:03:52.386Z,2.77
2019-05-13T15:06:22.304Z,2.92
2019-05-13T15:08:52.665Z,2.58
2019-05-13T15:11:22.588Z,3.80
2019-05-13T15:13:52.272Z,4.58
2019-05-13T15:16:22.586Z,4.45
2019-05-13T15:18:52.647Z,3.25
2019-05-13T15:21:22.071Z,3.60
2019-05-13T15:23:51.903Z,2.37
2019-05-13T15:26:22.278Z,2.70
2019-05-13T15:28:52.198Z,5.00
2019-05-13T15:31:22.277Z,2.92
2019-05-13T15:33:52.509Z,2.12
2019-05-13T15:36:22.724Z,2.75
2019-05-13T15:38:52.240Z,3.05
2019-05-13T15:41:21.877Z,2.47
2019-05-13T15:43:52.023Z,2.95
2019-05-13T15:46:22.081Z,3.12
2019-05-13T15:48:51.631Z,2.45
2019-05-13T15:51:22.086Z,3.33
2019-05-13T15:53:51.999Z,2.37
2019-05-13T15:56:22.404Z,3.17
2019-05-13T15:59:09.006Z,2.80
2019-05-13T16:01:23.241Z,4.15
2019-05-13T16:03:52.754Z,1.82
2019-05-13T16:06:23.131Z,2.52
2019-05-13T16:08:52.465Z,4.10
2019-05-13T16:11:22.196Z,3.40
2019-05-13T16:13:52.025Z,1.62
2019-05-13T16:16:22.196Z,2.12
2019-05-13T16:18:51.778Z,3.20
2019-05-13T16:21:21.060Z,3.10
2019-05-13T16:23:51.908Z,4.45
2019-05-13T16:26:22.703Z,3.62
2019-05-13T16:28:52.763Z,7.35
2019-05-13T16:31:22.165Z,2.85
2019-05-13T16:33:52.286Z,6.72
2019-05-13T16:36:22.224Z,5.17
2019-05-13T16:38:51.540Z,2.67
2019-05-13T16:41:22.230Z,3.20
2019-05-13T16:43:51.608Z,3.17
2019-05-13T16:46:21.497Z,3.52
2019-05-13T16:48:50.851Z,2.62
2019-05-13T16:51:21.604Z,6.22
2019-05-13T16:53:52.267Z,3.87
2019-05-13T16:56:27.754Z,2.70
2019-05-13T16:58:52.847Z,5.00
2019-05-13T17:01:22.246Z,11.75
2019-05-13T17:03:51.651Z,9.33
2019-05-13T17:06:21.692Z,7.05
2019-05-13T17:08:51.614Z,15.58
2019-05-13T17:11:21.009Z,6.72
2019-05-13T17:13:51.473Z,19.70
2019-05-13T17:16:21.345Z,7.60
2019-05-13T17:18:52.055Z,7.85
2019-05-13T17:21:21.576Z,7.30
2019-05-13T17:23:52.311Z,2.67
2019-05-13T17:26:22.158Z,5.05
2019-05-13T17:28:52.015Z,7.10
2019-05-13T17:31:21.891Z,3.83
2019-05-13T17:33:51.987Z,8.93
2019-05-13T17:36:21.794Z,5.65
2019-05-13T17:38:51.167Z,6.90
2019-05-13T17:41:21.375Z,3.75
2019-05-13T17:43:51.814Z,7.22
2019-05-13T17:46:21.886Z,5.28
2019-05-13T17:48:52.085Z,6.15
2019-05-13T17:51:22.533Z,9.35
2019-05-13T17:53:52.138Z,4.33
2019-05-13T17:56:21.794Z,5.33
2019-05-13T17:58:52.193Z,6.20
2019-05-13T18:01:21.516Z,7.28
2019-05-13T18:03:51.775Z,8.20
2019-05-13T18:06:21.203Z,3.08
2019-05-13T18:08:51.794Z,10.38
2019-05-13T18:11:21.914Z,4.37
2019-05-13T18:13:52.368Z,6.03
2019-05-13T18:16:21.908Z,3.80
2019-05-13T18:18:52.079Z,6.40
2019-05-13T18:21:21.591Z,4.10
2019-05-13T18:23:52.207Z,5.95
2019-05-13T18:26:21.748Z,5.65
2019-05-13T18:28:51.610Z,3.42
2019-05-13T18:31:24.329Z,5.10
2019-05-13T18:33:51.979Z,4.97
2019-05-13T18:36:22.272Z,5.05
2019-05-13T18:38:51.653Z,6.08
2019-05-13T18:41:21.422Z,3.52
2019-05-13T18:43:54.578Z,4.80
2019-05-13T18:46:22.575Z,3.22
2019-05-13T18:48:58.569Z,6.95
2019-05-13T18:51:22.931Z,3.35
2019-05-13T18:53:52.262Z,4.70
2019-05-13T18:56:21.898Z,5.50
2019-05-13T18:58:51.199Z,6.05
2019-05-13T19:01:21.597Z,3.47
2019-05-13T19:03:50.953Z,3.92
2019-05-13T19:06:22.388Z,2.55
2019-05-13T19:08:52.862Z,3.15
2019-05-13T19:11:22.361Z,6.90
2019-05-13T19:13:52.142Z,4.97
2019-05-13T19:16:21.875Z,3.92
2019-05-13T19:18:51.188Z,3.87
2019-05-13T19:21:21.900Z,3.60
2019-05-13T19:23:52.285Z,4.67
2019-05-13T19:26:21.891Z,3.52
2019-05-13T19:28:51.740Z,3.85
2019-05-13T19:31:22.099Z,5.03
2019-05-13T19:33:52.055Z,6.53
2019-05-13T19:36:22.415Z,2.60
2019-05-13T19:38:51.744Z,6.90
2019-05-13T19:41:22.255Z,4.75
2019-05-13T19:43:51.609Z,3.35
2019-05-13T19:46:20.945Z,6.12
2019-05-13T19:48:52.186Z,4.00
2019-05-13T19:51:22.897Z,2.87
2019-05-13T19:53:52.232Z,2.75
2019-05-13T19:56:21.599Z,2.87
2019-05-13T19:58:50.895Z,2.92
2019-05-13T20:01:21.701Z,2.85
2019-05-13T20:03:51.657Z,2.45
2019-05-13T20:06:21.416Z,7.00
2019-05-13T20:08:51.815Z,4.35
2019-05-13T20:13:46.486Z,2.42
2019-05-13T20:16:15.882Z,3.65
2019-05-13T20:18:45.218Z,5.37
2019-05-13T20:21:14.542Z,2.35
2019-05-13T20:23:43.884Z,4.92
2019-05-13T20:26:13.220Z,2.00
2019-05-13T20:28:42.816Z,2.83
2019-05-13T20:31:12.369Z,3.30
2019-05-13T20:33:42.911Z,4.28
2019-05-13T20:36:12.535Z,4.00
2019-05-13T20:38:41.866Z,3.50
2019-05-13T20:41:11.691Z,2.85
2019-05-13T20:43:42.555Z,3.35
2019-05-13T20:46:12.109Z,7.70
2019-05-13T20:48:41.449Z,4.97
2019-05-13T20:51:11.350Z,5.92
2019-05-13T20:53:41.306Z,5.78
2019-05-13T20:56:10.646Z,2.27
2019-05-13T20:58:42.006Z,4.08
2019-05-13T21:01:11.257Z,4.50
2019-05-13T21:03:41.926Z,4.72
2019-05-13T21:06:11.789Z,4.22
2019-05-13T21:08:42.166Z,2.37
2019-05-13T21:11:11.648Z,2.33
2019-05-13T21:13:41.331Z,2.65
2019-05-13T21:16:11.432Z,2.92
2019-05-13T21:18:42.194Z,2.62
2019-05-13T21:21:11.943Z,3.02
2019-05-13T21:23:41.838Z,3.85
2019-05-13T21:26:15.028Z,2.65
2019-05-13T21:28:42.521Z,3.85
2019-05-13T21:31:11.855Z,2.40
2019-05-13T21:33:41.181Z,2.50
2019-05-13T21:36:12.262Z,2.92
2019-05-13T21:38:41.740Z,1.92
2019-05-13T21:41:11.751Z,5.60
2019-05-13T21:43:41.512Z,2.72
2019-05-13T21:46:12.031Z,1.70
2019-05-13T21:48:41.738Z,4.15
2019-05-13T21:51:13.388Z,2.98
2019-05-13T21:53:42.170Z,2.87
2019-05-13T21:56:12.186Z,1.55
2019-05-13T21:58:41.753Z,3.67
2019-05-13T22:01:11.126Z,9.15
2019-05-13T22:03:41.984Z,4.25
2019-05-13T22:06:11.513Z,2.33
2019-05-13T22:08:41.238Z,4.53
2019-05-13T22:11:12.056Z,5.40
2019-05-13T22:13:42.003Z,5.12
2019-05-13T22:16:11.455Z,3.40
2019-05-13T22:18:41.781Z,2.45
2019-05-13T22:21:12.171Z,3.45
2019-05-13T22:23:41.498Z,1.85
2019-05-13T22:26:11.697Z,2.35
2019-05-13T22:28:42.111Z,3.35
2019-05-13T22:31:11.746Z,3.10
2019-05-13T22:33:41.344Z,2.15
2019-05-13T22:36:11.831Z,4.65
2019-05-13T22:38:42.665Z,3.40
2019-05-13T22:41:12.059Z,3.92
2019-05-13T22:43:54.357Z,5.62
2019-05-13T22:46:14.207Z,3.98
2019-05-13T22:48:44.763Z,3.10
2019-05-13T22:51:14.088Z,5.00
2019-05-13T22:53:44.490Z,3.92
2019-05-13T22:56:13.824Z,3.70
2019-05-13T22:58:43.168Z,3.62
2019-05-13T23:01:12.480Z,3.08
2019-05-13T23:03:41.805Z,1.17
2019-05-13T23:06:12.098Z,3.67
2019-05-13T23:08:41.527Z,1.85
2019-05-13T23:11:11.819Z,3.40
2019-05-13T23:13:42.128Z,2.15
2019-05-13T23:16:11.822Z,2.60
2019-05-13T23:18:42.117Z,2.45
2019-05-13T23:21:11.561Z,3.08
2019-05-13T23:23:40.880Z,2.52
2019-05-13T23:26:11.960Z,2.55
2019-05-13T23:28:42.357Z,3.17
2019-05-13T23:31:12.361Z,5.12
2019-05-13T23:33:41.906Z,2.70
2019-05-13T23:36:11.939Z,2.55
2019-05-13T23:38:41.574Z,4.40
2019-05-13T23:41:11.470Z,1.65
2019-05-13T23:43:41.038Z,3.50
2019-05-13T23:46:11.784Z,4.37
2019-05-13T23:48:42.314Z,3.15
2019-05-13T23:51:13.012Z,1.42
2019-05-13T23:53:42.443Z,3.37
2019-05-13T23:56:11.769Z,3.37
2019-05-13T23:58:41.548Z,4.47
